createdAt,value
2019-02-16T00:01:22.943Z,6.28
2019-02-16T00:04:05.618Z,6.77
2019-02-16T00:06:54.947Z,5.30
2019-02-16T00:09:37.472Z,4.90
2019-02-16T00:12:26.807Z,5.33
2019-02-16T00:15:08.473Z,6.30
2019-02-16T00:17:39.083Z,7.40
2019-02-16T00:20:28.479Z,6.47
2019-02-16T00:26:18.928Z,5.30
2019-02-16T00:29:08.217Z,6.30
2019-02-16T00:31:50.861Z,6.10
2019-02-16T00:34:40.544Z,6.90
2019-02-16T00:37:22.956Z,4.83
2019-02-16T00:40:12.609Z,4.83
2019-02-16T00:42:54.818Z,6.37
2019-02-16T00:45:44.173Z,6.33
2019-02-16T00:48:28.149Z,5.45
2019-02-16T00:51:13.704Z,5.87
2019-02-16T00:56:48.260Z,5.35
2019-02-16T00:59:37.684Z,5.80
2019-02-16T01:02:27.036Z,6.03
2019-02-16T01:05:16.814Z,6.90
2019-02-16T01:07:58.807Z,7.22
2019-02-16T01:10:48.382Z,5.70
2019-02-16T01:13:30.978Z,5.50
2019-02-16T01:16:13.180Z,6.25
2019-02-16T01:19:02.898Z,6.13
2019-02-16T01:21:44.552Z,7.23
2019-02-16T01:24:34.379Z,6.58
2019-02-16T01:30:31.388Z,6.77
2019-02-16T01:33:20.837Z,6.00
2019-02-16T01:36:03.076Z,6.80
2019-02-16T01:41:52.991Z,6.60
2019-02-16T01:44:42.310Z,7.43
2019-02-16T01:47:25.118Z,6.77
2019-02-16T01:53:21.273Z,7.10
2019-02-16T01:56:10.656Z,7.07
2019-02-16T01:58:52.997Z,7.55
2019-02-16T02:01:42.378Z,6.00
2019-02-16T02:04:24.673Z,6.53
2019-02-16T02:07:13.975Z,6.47
2019-02-16T02:09:55.776Z,6.90
2019-02-16T02:12:45.059Z,5.17
2019-02-16T02:15:27.492Z,6.73
2019-02-16T02:18:16.914Z,6.20
2019-02-16T02:20:47.300Z,6.57
2019-02-16T02:23:36.651Z,5.80
2019-02-16T02:26:18.469Z,5.20
2019-02-16T02:29:07.958Z,6.33
2019-02-16T02:31:49.691Z,7.67
2019-02-16T02:34:39.098Z,5.50
2019-02-16T02:37:20.681Z,7.62
2019-02-16T02:40:10.073Z,7.00
2019-02-16T02:42:52.494Z,6.50
2019-02-16T02:45:41.919Z,7.73
2019-02-16T02:48:24.037Z,6.27
2019-02-16T02:51:07.683Z,6.75
2019-02-16T02:53:49.284Z,6.07
2019-02-16T02:56:38.557Z,5.50
2019-02-16T02:59:28.263Z,7.07
2019-02-16T03:02:09.796Z,8.10
2019-02-16T03:04:59.270Z,6.03
2019-02-16T03:07:40.876Z,8.97
2019-02-16T03:10:31.531Z,7.87
2019-02-16T03:13:15.417Z,6.70
2019-02-16T03:15:57.826Z,15.90
2019-02-16T03:18:47.204Z,7.03
2019-02-16T03:21:29.279Z,6.43
2019-02-16T03:27:30.645Z,6.50
2019-02-16T03:30:58.204Z,10.68
2019-02-16T03:36:15.028Z,6.50
2019-02-16T03:39:42.882Z,6.50
2019-02-16T03:42:32.497Z,5.87
2019-02-16T03:45:14.667Z,6.57
2019-02-16T03:48:04.919Z,6.80
2019-02-16T03:50:54.277Z,6.53
2019-02-16T03:53:36.084Z,5.60
2019-02-16T03:56:25.382Z,6.77
2019-02-16T03:59:09.788Z,6.30
2019-02-16T04:01:59.161Z,6.50
2019-02-16T04:04:40.800Z,9.27
2019-02-16T04:07:30.757Z,6.60
2019-02-16T04:10:12.781Z,6.80
2019-02-16T04:13:02.374Z,7.33
2019-02-16T04:15:45.038Z,6.87
2019-02-16T04:18:34.398Z,6.10
2019-02-16T04:21:16.838Z,7.03
2019-02-16T04:24:06.211Z,7.30
2019-02-16T04:26:49.066Z,9.47
2019-02-16T04:29:38.451Z,8.50
2019-02-16T04:32:20.273Z,7.20
2019-02-16T04:35:09.598Z,7.13
2019-02-16T04:37:40.161Z,8.03
2019-02-16T04:40:10.385Z,6.13
2019-02-16T04:42:59.827Z,6.83
2019-02-16T04:45:42.055Z,6.97
2019-02-16T04:48:25.340Z,6.60
2019-02-16T04:51:14.602Z,8.63
2019-02-16T04:53:56.691Z,7.37
2019-02-16T04:59:47.088Z,5.87
2019-02-16T05:02:36.425Z,7.03
2019-02-16T05:05:18.668Z,7.03
2019-02-16T05:08:08.066Z,6.37
2019-02-16T05:10:50.517Z,5.70
2019-02-16T05:13:40.057Z,6.63
2019-02-16T05:16:21.719Z,6.00
2019-02-16T05:19:11.324Z,7.70
2019-02-16T05:22:00.692Z,7.73
2019-02-16T05:24:42.963Z,6.97
2019-02-16T05:27:32.540Z,5.73
2019-02-16T05:30:14.299Z,7.63
2019-02-16T05:33:03.688Z,7.77
2019-02-16T05:35:52.979Z,7.37
2019-02-16T05:38:42.571Z,7.60
2019-02-16T05:41:25.142Z,6.83
2019-02-16T05:44:07.049Z,8.87
2019-02-16T05:46:56.422Z,8.23
2019-02-16T05:49:38.759Z,7.30
2019-02-16T05:52:28.369Z,6.50
2019-02-16T05:55:10.987Z,7.27
2019-02-16T06:01:02.030Z,7.85
2019-02-16T06:03:51.285Z,7.10
2019-02-16T06:06:33.347Z,8.07
2019-02-16T06:09:22.723Z,8.10
2019-02-16T06:12:04.939Z,7.70
2019-02-16T06:14:54.286Z,7.05
2019-02-16T06:17:36.840Z,8.20
2019-02-16T06:20:26.177Z,8.70
2019-02-16T06:23:08.235Z,8.08
2019-02-16T06:25:57.619Z,9.03
2019-02-16T06:28:40.441Z,7.30
2019-02-16T06:34:17.261Z,7.93
2019-02-16T06:37:25.412Z,8.67
2019-02-16T06:40:07.918Z,8.33
2019-02-16T06:42:57.229Z,7.13
2019-02-16T06:45:39.111Z,8.75
2019-02-16T06:48:28.433Z,9.95
2019-02-16T06:51:10.110Z,7.87
2019-02-16T06:53:59.515Z,8.80
2019-02-16T06:57:00.531Z,8.30
2019-02-16T06:59:50.093Z,8.33
2019-02-16T07:02:31.894Z,8.70
2019-02-16T07:05:14.056Z,10.30
2019-02-16T07:08:03.408Z,8.60
2019-02-16T07:10:45.449Z,11.33
2019-02-16T07:19:57.721Z,8.83
2019-02-16T07:22:27.924Z,8.70
2019-02-16T07:25:17.293Z,9.30
2019-02-16T07:27:59.224Z,8.43
2019-02-16T07:30:48.831Z,10.13
2019-02-16T07:33:30.775Z,9.20
2019-02-16T07:36:22.089Z,9.55
2019-02-16T07:39:04.830Z,8.70
2019-02-16T07:41:54.201Z,8.98
2019-02-16T07:44:56.718Z,8.97
2019-02-16T07:48:04.972Z,10.85
2019-02-16T07:51:11.415Z,9.33
2019-02-16T07:54:21.617Z,9.58
2019-02-16T07:57:10.907Z,9.33
2019-02-16T08:00:19.061Z,8.35
2019-02-16T08:03:19.925Z,9.47
2019-02-16T08:06:18.302Z,8.57
2019-02-16T08:09:20.110Z,8.17
2019-02-16T08:12:29.275Z,8.60
2019-02-16T08:15:18.652Z,11.43
2019-02-16T08:18:26.804Z,11.33
2019-02-16T08:21:30.057Z,11.16
2019-02-16T08:24:39.328Z,10.77
2019-02-16T08:27:41.257Z,9.50
2019-02-16T08:30:41.253Z,10.83
2019-02-16T08:33:32.198Z,8.60
2019-02-16T08:36:40.488Z,10.10
2019-02-16T08:39:48.939Z,11.50
2019-02-16T08:42:57.902Z,10.47
2019-02-16T08:45:49.175Z,10.20
2019-02-16T08:48:57.486Z,10.50
2019-02-16T08:51:54.752Z,9.93
2019-02-16T08:55:03.428Z,9.47
2019-02-16T08:57:54.851Z,9.73
2019-02-16T09:01:03.287Z,11.63
2019-02-16T09:03:52.549Z,10.60
2019-02-16T09:07:20.221Z,10.73
2019-02-16T09:13:19.058Z,10.85
2019-02-16T09:16:27.339Z,12.50
2019-02-16T09:19:21.807Z,11.20
2019-02-16T09:22:30.601Z,11.63
2019-02-16T09:28:35.632Z,11.50
2019-02-16T09:31:36.279Z,11.80
2019-02-16T09:34:45.102Z,11.33
2019-02-16T09:37:49.195Z,12.00
2019-02-16T09:40:58.430Z,13.25
2019-02-16T09:44:00.069Z,16.00
2019-02-16T09:47:09.337Z,15.17
2019-02-16T09:50:10.792Z,18.07
2019-02-16T09:53:19.290Z,18.17
2019-02-16T09:56:21.767Z,15.63
2019-02-16T09:59:30.332Z,15.83
2019-02-16T10:02:31.998Z,15.43
2019-02-16T10:05:32.349Z,15.87
2019-02-16T10:11:39.140Z,16.20
2019-02-16T10:14:39.895Z,16.60
2019-02-16T10:17:48.159Z,17.17
2019-02-16T10:20:49.137Z,20.10
2019-02-16T10:23:57.386Z,18.45
2019-02-16T10:26:58.498Z,19.48
2019-02-16T10:30:06.781Z,18.45
2019-02-16T10:33:06.198Z,18.87
2019-02-16T10:36:14.403Z,18.20
2019-02-16T10:39:19.483Z,22.60
2019-02-16T10:42:27.738Z,18.20
2019-02-16T10:45:25.188Z,18.60
2019-02-16T10:48:23.392Z,20.07
2019-02-16T10:51:30.316Z,19.63
2019-02-16T10:54:27.995Z,19.50
2019-02-16T10:57:27.362Z,20.00
2019-02-16T11:00:35.613Z,20.12
2019-02-16T11:03:43.091Z,23.37
2019-02-16T11:06:52.378Z,19.75
2019-02-16T11:09:53.718Z,22.33
2019-02-16T11:13:02.004Z,22.80
2019-02-16T11:15:54.213Z,20.70
2019-02-16T11:19:03.496Z,21.87
2019-02-16T11:22:06.065Z,23.10
2019-02-16T11:25:14.334Z,21.90
2019-02-16T11:28:18.135Z,22.97
2019-02-16T11:31:26.357Z,23.27
2019-02-16T11:34:16.277Z,23.75
2019-02-16T11:37:24.534Z,22.37
2019-02-16T11:40:19.069Z,24.27
2019-02-16T11:43:27.354Z,22.70
2019-02-16T11:46:28.093Z,21.47
2019-02-16T11:49:36.344Z,24.53
2019-02-16T11:52:26.914Z,22.77
2019-02-16T11:55:36.191Z,26.23
2019-02-16T11:58:39.358Z,22.60
2019-02-16T12:01:47.701Z,30.17
2019-02-16T12:04:54.846Z,25.07
2019-02-16T12:08:04.118Z,25.80
2019-02-16T12:11:05.711Z,24.47
2019-02-16T12:13:54.837Z,22.40
2019-02-16T12:16:56.446Z,24.02
2019-02-16T12:19:52.694Z,23.97
2019-02-16T12:22:54.254Z,22.23
2019-02-16T12:26:02.828Z,24.93
2019-02-16T12:29:03.370Z,20.10
2019-02-16T12:32:11.636Z,25.55
2019-02-16T12:35:14.426Z,28.03
2019-02-16T12:38:22.675Z,24.03
2019-02-16T12:44:49.486Z,24.57
2019-02-16T12:47:39.924Z,25.48
2019-02-16T12:50:48.474Z,24.33
2019-02-16T12:53:37.778Z,25.53
2019-02-16T12:56:46.378Z,25.40
2019-02-16T12:59:48.228Z,25.47
2019-02-16T13:02:52.947Z,24.37
2019-02-16T13:06:01.181Z,23.93
2019-02-16T13:08:56.055Z,24.07
2019-02-16T13:15:06.541Z,21.77
2019-02-16T13:21:15.557Z,26.27
2019-02-16T13:27:20.467Z,23.98
2019-02-16T13:30:21.925Z,24.40
2019-02-16T13:33:30.255Z,22.37
2019-02-16T13:36:17.681Z,29.20
2019-02-16T13:39:47.224Z,25.33
2019-02-16T13:42:39.440Z,25.62
2019-02-16T13:45:24.995Z,24.43
2019-02-16T13:48:14.224Z,25.60
2019-02-16T13:51:15.690Z,24.98
2019-02-16T13:54:16.586Z,23.43
2019-02-16T13:57:24.935Z,25.57
2019-02-16T14:00:19.399Z,24.53
2019-02-16T14:03:19.155Z,25.48
2019-02-16T14:06:20.514Z,22.83
2019-02-16T14:09:21.495Z,21.97
2019-02-16T14:12:29.742Z,25.97
2019-02-16T14:15:31.678Z,24.57
2019-02-16T14:21:22.341Z,27.03
2019-02-16T14:27:14.664Z,28.17
2019-02-16T14:33:07.337Z,26.93
2019-02-16T14:35:57.371Z,25.90
2019-02-16T14:38:44.873Z,28.10
2019-02-16T14:44:41.690Z,23.83
2019-02-16T14:50:19.502Z,29.40
2019-02-16T14:53:08.947Z,25.90
2019-02-16T14:55:54.795Z,24.70
2019-02-16T14:58:25.059Z,24.33
2019-02-16T15:01:07.613Z,28.53
2019-02-16T15:03:56.984Z,25.57
2019-02-16T15:06:38.850Z,24.47
2019-02-16T15:09:28.222Z,25.97
2019-02-16T15:12:14.510Z,23.00
2019-02-16T15:15:04.237Z,23.95
2019-02-16T15:17:46.532Z,23.03
2019-02-16T15:20:36.148Z,23.50
2019-02-16T15:26:13.783Z,22.93
2019-02-16T15:29:03.464Z,24.03
2019-02-16T15:31:45.571Z,24.10
2019-02-16T15:37:22.386Z,24.47
2019-02-16T15:40:11.836Z,26.77
2019-02-16T15:42:53.627Z,52.23
2019-02-16T15:45:43.355Z,24.33
2019-02-16T15:48:25.645Z,38.02
2019-02-16T15:51:07.917Z,28.13
2019-02-16T15:53:57.294Z,25.10
2019-02-16T15:56:39.510Z,32.73
2019-02-16T15:59:35.027Z,22.87
2019-02-16T16:02:12.922Z,26.43
2019-02-16T16:04:56.718Z,25.40
2019-02-16T16:10:45.148Z,26.23
2019-02-16T16:13:53.433Z,25.77
2019-02-16T16:16:54.615Z,30.13
2019-02-16T16:20:17.713Z,24.80
2019-02-16T16:22:53.795Z,28.50
2019-02-16T16:26:02.059Z,27.47
2019-02-16T16:29:00.203Z,25.53
2019-02-16T16:34:38.028Z,28.33
2019-02-16T16:37:26.028Z,28.20
2019-02-16T16:40:34.296Z,29.13
2019-02-16T16:46:38.138Z,26.97
2019-02-16T16:49:46.675Z,27.90
2019-02-16T16:52:46.968Z,30.47
2019-02-16T16:55:48.274Z,29.00
2019-02-16T16:58:38.890Z,26.35
2019-02-16T17:01:47.141Z,28.33
2019-02-16T17:04:48.329Z,27.80
2019-02-16T17:07:39.499Z,30.07
2019-02-16T17:10:47.787Z,27.57
2019-02-16T17:13:49.183Z,27.00
2019-02-16T17:16:38.603Z,27.87
2019-02-16T17:19:37.152Z,30.23
2019-02-16T17:22:58.067Z,31.57
2019-02-16T17:25:54.108Z,31.47
2019-02-16T17:28:47.036Z,32.87
2019-02-16T17:31:23.281Z,32.17
2019-02-16T17:34:31.540Z,30.73
2019-02-16T17:37:22.662Z,29.83
2019-02-16T17:40:31.121Z,28.03
2019-02-16T17:43:35.044Z,29.33
2019-02-16T17:46:43.659Z,27.93
2019-02-16T17:49:51.881Z,27.57
2019-02-16T17:53:00.167Z,31.68
2019-02-16T17:56:01.717Z,34.43
2019-02-16T17:59:10.031Z,34.60
2019-02-16T18:02:16.910Z,31.47
2019-02-16T18:05:25.307Z,31.07
2019-02-16T18:08:28.876Z,33.67
2019-02-16T18:11:39.279Z,30.63
2019-02-16T18:14:40.452Z,31.17
2019-02-16T18:20:45.782Z,30.10
2019-02-16T18:23:47.212Z,27.03
2019-02-16T18:26:56.488Z,31.60
2019-02-16T18:30:02.710Z,30.93
2019-02-16T18:36:15.860Z,27.33
2019-02-16T18:39:03.039Z,28.77
2019-02-16T18:42:04.154Z,31.60
2019-02-16T18:45:08.409Z,31.37
2019-02-16T18:48:16.724Z,29.47
2019-02-16T18:51:23.415Z,27.57
2019-02-16T18:54:24.780Z,33.70
2019-02-16T18:57:33.930Z,30.20
2019-02-16T19:00:21.945Z,30.37
2019-02-16T19:03:20.578Z,30.33
2019-02-16T19:06:24.802Z,31.87
2019-02-16T19:09:32.978Z,29.53
2019-02-16T19:12:30.349Z,31.10
2019-02-16T19:15:38.620Z,32.87
2019-02-16T19:18:45.803Z,30.55
2019-02-16T19:21:54.073Z,30.68
2019-02-16T19:27:56.296Z,29.87
2019-02-16T19:30:58.473Z,29.98
2019-02-16T19:33:59.714Z,29.37
2019-02-16T19:37:07.985Z,30.40
2019-02-16T19:40:11.919Z,27.93
2019-02-16T19:43:13.026Z,29.43
2019-02-16T19:46:14.105Z,32.20
2019-02-16T19:49:37.059Z,33.90
2019-02-16T19:52:01.230Z,27.13
2019-02-16T19:55:09.470Z,31.17
2019-02-16T19:58:25.814Z,29.77
2019-02-16T20:01:20.880Z,32.43
2019-02-16T20:04:25.042Z,30.12
2019-02-16T20:07:33.393Z,31.03
2019-02-16T20:10:37.157Z,31.20
2019-02-16T20:13:45.398Z,33.77
2019-02-16T20:16:49.212Z,32.40
2019-02-16T20:19:57.747Z,34.67
2019-02-16T20:22:59.623Z,28.87
2019-02-16T20:26:07.909Z,38.00
2019-02-16T20:29:09.175Z,34.60
2019-02-16T20:32:05.026Z,30.77
2019-02-16T20:35:05.997Z,35.00
2019-02-16T20:38:15.295Z,39.93
2019-02-16T20:41:18.052Z,32.80
2019-02-16T20:44:22.039Z,35.47
2019-02-16T20:47:24.363Z,33.77
2019-02-16T20:50:37.692Z,37.67
2019-02-16T20:53:41.507Z,36.33
2019-02-16T20:57:12.833Z,36.05
2019-02-16T21:00:15.846Z,33.38
2019-02-16T21:03:29.650Z,34.03
2019-02-16T21:06:33.969Z,33.53
2019-02-16T21:12:49.173Z,33.53
2019-02-16T21:19:49.519Z,32.47
2019-02-16T21:22:58.585Z,34.92
2019-02-16T21:26:10.579Z,35.77
2019-02-16T21:32:42.557Z,31.67
2019-02-16T21:35:45.691Z,34.27
2019-02-16T21:41:55.811Z,32.50
2019-02-16T21:45:01.429Z,35.00
2019-02-16T21:48:32.136Z,34.07
2019-02-16T21:51:37.700Z,32.67
2019-02-16T21:55:08.686Z,34.53
2019-02-16T21:58:12.945Z,31.73
2019-02-16T22:01:09.062Z,32.93
2019-02-16T22:04:20.395Z,35.57
2019-02-16T22:10:25.716Z,32.75
2019-02-16T22:13:13.872Z,33.10
2019-02-16T22:16:08.164Z,31.87
2019-02-16T22:18:54.910Z,33.17
2019-02-16T22:21:48.614Z,34.57
2019-02-16T22:24:35.015Z,32.53
2019-02-16T22:27:48.356Z,29.37
2019-02-16T22:39:55.056Z,35.07
2019-02-16T22:45:48.106Z,35.73
2019-02-16T22:48:33.633Z,37.83
2019-02-16T22:54:19.189Z,35.17
2019-02-16T23:00:53.396Z,34.17
2019-02-16T23:03:41.124Z,33.20
2019-02-16T23:06:55.122Z,35.87
2019-02-16T23:09:40.521Z,30.57
2019-02-16T23:12:30.480Z,35.40
2019-02-16T23:15:12.824Z,32.23
2019-02-16T23:17:57.440Z,34.80
2019-02-16T23:23:47.666Z,32.17
2019-02-16T23:26:36.923Z,34.33
2019-02-16T23:29:18.981Z,32.63
2019-02-16T23:31:49.242Z,33.10
2019-02-16T23:37:33.840Z,34.50
2019-02-16T23:40:17.738Z,34.80
2019-02-16T23:43:07.444Z,35.47
2019-02-16T23:45:50.437Z,34.70
2019-02-16T23:48:53.985Z,35.87
2019-02-16T23:54:25.564Z,33.93
